Time;durP1;ratioP1;P1;durP2;ratioP2;P2;SDS_P1;SDS_P2;PMS_P1;PMS_P2;Temp;Humidity;BMP_temperature;BMP_pressure;BME280_temperature;BME280_humidity;BME280_pressure;Samples;Min_cycle;Max_cycle;Signal;HPM_P1;HPM_P2
2023/07/12 00:01:31;;;;;;;3.20;1.30;;;26.20;54.00;;;;;;4892213;29;20487;-51
2023/07/12 00:04:09;;;;;;;1.88;0.90;;;26.10;55.10;;;;;;4898961;29;20442;-51
2023/07/12 00:06:41;;;;;;;1.67;1.10;;;26.10;56.40;;;;;;4894424;29;20052;-52
2023/07/12 00:09:13;;;;;;;2.75;0.68;;;26.10;55.90;;;;;;4894656;29;20525;-51
2023/07/12 00:11:41;;;;;;;3.78;1.50;;;26.10;55.90;;;;;;4888263;29;20056;-51
2023/07/12 00:14:09;;;;;;;1.70;0.80;;;26.00;55.50;;;;;;4894117;29;20064;-53
2023/07/12 00:16:38;;;;;;;3.47;1.20;;;26.00;56.20;;;;;;4894107;29;20068;-51
2023/07/12 00:19:13;;;;;;;3.78;1.23;;;25.90;56.20;;;;;;4894659;29;20045;-52
2023/07/12 00:21:42;;;;;;;;;;;25.90;56.00;;;;;;4890178;29;20580;-52
2023/07/12 00:24:11;;;;;;;1.00;0.77;;;25.90;54.50;;;;;;4890142;29;20015;-51
2023/07/12 00:26:40;;;;;;;3.38;0.88;;;25.80;55.50;;;;;;4889955;29;20062;-52
2023/07/12 00:29:12;;;;;;;1.98;0.90;;;25.80;56.20;;;;;;4893920;29;20089;-50
2023/07/12 00:31:40;;;;;;;1.67;1.02;;;25.70;56.20;;;;;;4889088;29;20076;-51
2023/07/12 00:34:12;;;;;;;2.42;0.90;;;25.70;56.50;;;;;;4876801;29;20128;-50
2023/07/12 00:36:40;;;;;;;2.38;0.98;;;25.70;56.50;;;;;;4877240;29;20091;-52
2023/07/12 00:39:09;;;;;;;3.65;1.08;;;25.60;55.90;;;;;;4877684;29;20037;-51
2023/07/12 00:42:02;;;;;;;1.70;1.20;;;25.60;56.50;;;;;;4872816;29;20037;-51
2023/07/12 00:44:36;;;;;;;1.90;1.20;;;25.60;57.30;;;;;;4888908;29;20454;-50
2023/07/12 00:47:03;;;;;;;1.85;0.90;;;25.50;57.80;;;;;;4877089;29;20547;-50
2023/07/12 00:49:30;;;;;;;1.88;1.00;;;25.50;57.20;;;;;;4891786;29;20048;-51
2023/07/12 00:52:08;;;;;;;1.17;0.98;;;25.50;57.90;;;;;;4893689;29;20059;-51
2023/07/12 00:54:58;;;;;;;2.25;1.00;;;25.50;58.30;;;;;;4883574;29;20064;-48
2023/07/12 00:57:29;;;;;;;3.05;1.05;;;25.50;58.50;;;;;;4877233;29;20139;-49
2023/07/12 01:00:01;;;;;;;1.42;0.98;;;25.40;57.90;;;;;;4897462;29;20036;-51
2023/07/12 01:02:30;;;;;;;2.92;1.00;;;25.40;57.60;;;;;;4892035;29;20313;-51
2023/07/12 01:05:01;;;;;;;1.50;1.33;;;25.40;57.30;;;;;;4877143;29;20049;-53
2023/07/12 01:07:30;;;;;;;1.67;1.10;;;25.30;57.90;;;;;;4897052;29;20060;-49
2023/07/12 01:10:02;;;;;;;2.33;1.20;;;25.30;57.20;;;;;;4897535;29;20477;-52
2023/07/12 01:12:31;;;;;;;1.80;1.10;;;25.30;56.90;;;;;;4874634;29;20082;-50
2023/07/12 01:14:58;;;;;;;1.83;1.40;;;25.30;56.80;;;;;;4880878;29;20150;-48
2023/07/12 01:17:28;;;;;;;3.42;1.52;;;25.20;56.70;;;;;;4896473;29;20120;-51
2023/07/12 01:19:55;;;;;;;4.13;1.30;;;25.20;56.30;;;;;;4896381;29;20056;-53
2023/07/12 01:22:24;;;;;;;1.60;1.23;;;25.10;56.50;;;;;;4888965;29;20095;-51
2023/07/12 01:24:53;;;;;;;1.75;1.10;;;25.10;56.90;;;;;;4881541;29;20052;-49
2023/07/12 01:27:24;;;;;;;3.63;1.13;;;25.00;56.80;;;;;;4896897;29;20051;-53
2023/07/12 01:29:53;;;;;;;4.87;2.07;;;24.90;56.80;;;;;;4879942;29;20059;-53
2023/07/12 01:32:23;;;;;;;1.27;1.10;;;24.90;57.50;;;;;;4891433;29;20163;-48
2023/07/12 01:34:51;;;;;;;3.88;1.73;;;24.80;57.40;;;;;;4881072;29;20462;-52
2023/07/12 01:37:20;;;;;;;2.60;1.67;;;24.80;57.20;;;;;;4880293;29;20105;-51
2023/07/12 01:39:49;;;;;;;2.45;1.60;;;24.70;57.20;;;;;;4877290;29;20045;-50
2023/07/12 01:42:24;;;;;;;1.40;1.27;;;24.70;57.30;;;;;;4889568;29;20043;-51
2023/07/12 01:44:50;;;;;;;2.95;1.15;;;24.70;57.80;;;;;;4871213;29;20173;-51
2023/07/12 01:47:22;;;;;;;2.55;1.20;;;24.60;57.40;;;;;;4895976;29;20040;-50
2023/07/12 01:49:49;;;;;;;2.97;1.08;;;24.60;56.80;;;;;;4879328;29;20055;-52
2023/07/12 01:52:16;;;;;;;2.47;1.20;;;24.60;56.30;;;;;;4882033;29;20051;-52
2023/07/12 01:54:46;;;;;;;1.23;1.00;;;24.50;56.10;;;;;;4890606;29;20055;-52
2023/07/12 01:57:17;;;;;;;1.52;1.10;;;24.40;56.30;;;;;;4888818;29;20033;-52
2023/07/12 01:59:48;;;;;;;1.67;1.30;;;24.40;55.70;;;;;;4878039;29;20049;-50
2023/07/12 02:02:15;;;;;;;1.52;1.23;;;24.20;55.60;;;;;;4873507;29;20044;-51
2023/07/12 02:04:44;;;;;;;2.25;0.98;;;24.20;55.50;;;;;;4880363;29;20422;-52
2023/07/12 02:07:12;;;;;;;2.67;1.40;;;24.10;55.50;;;;;;4878912;29;20052;-52
2023/07/12 02:09:40;;;;;;;1.33;1.23;;;24.00;55.50;;;;;;4877392;29;20135;-51
2023/07/12 02:12:14;;;;;;;2.53;1.75;;;23.90;55.20;;;;;;4878870;29;20063;-50
2023/07/12 02:14:42;;;;;;;2.22;1.25;;;23.80;55.00;;;;;;4896855;29;20036;-52
2023/07/12 02:17:14;;;;;;;5.57;1.20;;;23.80;55.10;;;;;;4892794;29;20482;-48
2023/07/12 02:19:40;;;;;;;5.55;1.95;;;23.70;56.90;;;;;;4887766;29;20072;-51
2023/07/12 02:22:15;;;;;;;5.85;2.42;;;23.60;58.90;;;;;;4894423;29;20092;-52
2023/07/12 02:24:54;;;;;;;2.20;1.48;;;23.30;60.30;;;;;;4869840;29;20125;-50
2023/07/12 02:27:20;;;;;;;2.13;1.30;;;23.10;62.70;;;;;;4895054;29;20470;-49
2023/07/12 02:29:58;;;;;;;3.05;1.20;;;22.80;61.70;;;;;;4895501;29;20093;-51
2023/07/12 02:32:27;;;;;;;4.47;1.52;;;22.50;62.90;;;;;;4880007;29;20076;-52
2023/07/12 02:34:54;;;;;;;2.42;1.60;;;22.20;63.60;;;;;;4893429;29;20121;-51
2023/07/12 02:37:23;;;;;;;1.92;1.38;;;22.00;64.50;;;;;;4895296;29;20033;-51
2023/07/12 02:39:54;;;;;;;3.13;1.40;;;21.80;65.20;;;;;;4885959;29;20072;-47
2023/07/12 02:42:21;;;;;;;1.55;1.35;;;21.70;65.80;;;;;;4890399;29;20280;-50
2023/07/12 02:44:49;;;;;;;2.75;1.40;;;21.40;66.60;;;;;;4895349;29;20051;-49
2023/07/12 02:47:18;;;;;;;4.07;1.42;;;21.30;67.90;;;;;;4894294;29;20621;-50
2023/07/12 02:49:47;;;;;;;1.85;1.15;;;21.20;68.30;;;;;;4891037;29;20109;-51
2023/07/12 02:52:14;;;;;;;1.90;1.23;;;21.10;69.00;;;;;;4885974;29;20071;-51
2023/07/12 02:54:40;;;;;;;3.20;1.50;;;21.00;69.90;;;;;;4890057;29;20458;-51
2023/07/12 02:57:14;;;;;;;1.88;1.40;;;21.00;70.10;;;;;;4893811;29;20064;-50
2023/07/12 02:59:43;;;;;;;3.42;2.13;;;21.00;71.20;;;;;;4899463;29;20052;-48
2023/07/12 03:02:15;;;;;;;4.70;1.45;;;20.90;71.10;;;;;;4875469;29;20418;-49
2023/07/12 03:04:43;;;;;;;2.05;1.48;;;20.90;71.60;;;;;;4893772;29;20064;-50
2023/07/12 03:07:14;;;;;;;4.05;1.80;;;20.90;71.60;;;;;;4895146;29;20446;-51
2023/07/12 03:09:43;;;;;;;1.77;1.67;;;20.90;71.70;;;;;;4895735;29;20044;-51
2023/07/12 03:12:13;;;;;;;1.88;1.70;;;20.90;72.40;;;;;;4891801;29;20075;-48
2023/07/12 03:14:46;;;;;;;3.75;1.55;;;20.90;71.80;;;;;;4888261;29;20073;-47
2023/07/12 03:17:13;;;;;;;2.83;2.00;;;20.90;72.20;;;;;;4895009;29;20100;-48
2023/07/12 03:19:40;;;;;;;3.53;1.60;;;20.90;72.60;;;;;;4895861;29;20123;-48
2023/07/12 03:22:10;;;;;;;1.85;1.30;;;20.80;72.90;;;;;;4890793;29;20047;-51
2023/07/12 03:24:36;;;;;;;2.13;1.50;;;20.90;73.80;;;;;;4885024;29;20131;-47
2023/07/12 03:27:03;;;;;;;7.43;2.38;;;20.90;73.60;;;;;;4892607;29;20054;-51
2023/07/12 03:29:33;;;;;;;4.25;2.10;;;20.80;73.80;;;;;;4895788;29;20069;-48
2023/07/12 03:32:05;;;;;;;3.80;1.88;;;20.90;74.40;;;;;;4893981;29;20047;-49
2023/07/12 03:34:37;;;;;;;2.97;1.48;;;20.90;74.20;;;;;;4893340;29;20052;-50
2023/07/12 03:37:05;;;;;;;1.80;1.17;;;20.90;74.30;;;;;;4894619;29;20048;-48
2023/07/12 03:39:32;;;;;;;4.03;1.83;;;20.90;73.60;;;;;;4895756;29;20079;-50
2023/07/12 03:42:04;;;;;;;2.30;1.40;;;20.80;73.80;;;;;;4892652;29;20123;-49
2023/07/12 03:44:30;;;;;;;1.83;1.15;;;20.80;73.90;;;;;;4889696;29;20628;-51
2023/07/12 03:46:57;;;;;;;3.50;1.45;;;20.80;74.30;;;;;;4894539;29;20576;-51
2023/07/12 03:49:28;;;;;;;2.42;1.40;;;20.80;74.60;;;;;;4895480;29;20056;-51
2023/07/12 03:52:03;;;;;;;1.98;1.27;;;20.80;74.60;;;;;;4885487;29;20124;-48
2023/07/12 03:54:29;;;;;;;3.72;1.50;;;20.90;74.60;;;;;;4882783;29;20056;-49
2023/07/12 03:56:58;;;;;;;2.25;0.95;;;20.80;74.20;;;;;;4891148;29;20109;-52
2023/07/12 03:59:25;;;;;;;3.33;1.45;;;20.80;74.10;;;;;;4894946;29;20040;-49
2023/07/12 04:01:53;;;;;;;3.63;1.50;;;20.80;74.00;;;;;;4892559;29;20133;-51
2023/07/12 04:04:23;;;;;;;2.22;1.40;;;20.70;74.00;;;;;;4884702;29;20127;-51
2023/07/12 04:06:50;;;;;;;2.80;1.27;;;20.70;74.10;;;;;;4895403;29;20477;-51
2023/07/12 04:09:19;;;;;;;2.22;1.15;;;20.60;73.90;;;;;;4894844;29;20408;-51
2023/07/12 04:11:46;;;;;;;3.25;1.30;;;20.60;74.10;;;;;;4891511;29;20044;-48
2023/07/12 04:14:17;;;;;;;1.40;1.30;;;20.50;74.10;;;;;;4887941;29;20481;-49
2023/07/12 04:16:52;;;;;;;2.20;1.20;;;20.50;74.10;;;;;;4894675;29;20047;-51
2023/07/12 04:19:22;;;;;;;1.40;1.30;;;20.50;75.00;;;;;;4893045;29;20486;-47
2023/07/12 04:21:48;;;;;;;1.33;1.20;;;20.50;74.90;;;;;;4890792;29;20072;-50
2023/07/12 04:24:15;;;;;;;2.50;1.30;;;20.50;75.20;;;;;;4883092;29;20442;-49
2023/07/12 04:26:44;;;;;;;1.85;1.30;;;20.50;75.70;;;;;;4895988;29;20137;-51
2023/07/12 04:29:11;;;;;;;2.42;1.10;;;20.50;75.90;;;;;;4878152;29;20104;-50
2023/07/12 04:31:40;;;;;;;1.42;1.30;;;20.50;75.70;;;;;;4887701;29;20080;-47
2023/07/12 04:34:09;;;;;;;4.95;1.48;;;20.50;75.80;;;;;;4892924;29;20096;-48
2023/07/12 04:36:49;;;;;;;1.93;1.00;;;20.50;76.00;;;;;;4897492;29;20044;-50
2023/07/12 04:39:15;;;;;;;2.08;1.30;;;20.50;75.20;;;;;;4894704;29;20040;-47
2023/07/12 04:41:42;;;;;;;1.90;1.20;;;20.50;75.30;;;;;;4893013;29;20130;-51
2023/07/12 04:44:11;;;;;;;3.33;1.23;;;20.50;75.50;;;;;;4895597;29;20140;-50
2023/07/12 04:46:40;;;;;;;1.55;1.17;;;20.50;75.70;;;;;;4895855;29;20052;-52
2023/07/12 04:49:08;;;;;;;1.58;1.10;;;20.60;75.90;;;;;;4886449;29;20045;-52
2023/07/12 04:51:39;;;;;;;2.22;0.88;;;20.60;75.70;;;;;;4888732;29;20060;-52
2023/07/12 04:54:06;;;;;;;1.17;0.77;;;20.60;75.70;;;;;;4884950;29;20131;-51
2023/07/12 04:56:34;;;;;;;1.10;1.10;;;20.60;75.60;;;;;;4897310;29;20056;-52
2023/07/12 04:59:04;;;;;;;1.75;0.88;;;20.60;75.60;;;;;;4896874;29;20058;-52
2023/07/12 05:01:32;;;;;;;1.02;0.80;;;20.70;75.60;;;;;;4893209;29;20502;-52
2023/07/12 05:04:01;;;;;;;3.30;1.15;;;20.60;75.40;;;;;;4893573;29;20049;-50
2023/07/12 05:06:28;;;;;;;1.70;1.13;;;20.70;75.20;;;;;;4895176;29;20131;-52
2023/07/12 05:09:03;;;;;;;2.40;1.13;;;20.70;75.20;;;;;;4894680;29;20053;-52
2023/07/12 05:11:32;;;;;;;1.48;1.27;;;20.70;75.20;;;;;;4888432;29;20056;-52
2023/07/12 05:13:58;;;;;;;3.03;1.20;;;20.70;75.80;;;;;;4890698;29;20060;-50
2023/07/12 05:16:29;;;;;;;1.70;0.98;;;20.70;75.70;;;;;;4886870;29;20446;-50
2023/07/12 05:18:56;;;;;;;1.55;1.30;;;20.70;76.00;;;;;;4896169;29;20589;-51
2023/07/12 05:21:25;;;;;;;2.05;1.20;;;20.70;75.40;;;;;;4896736;29;20049;-51
2023/07/12 05:23:59;;;;;;;2.40;1.17;;;20.70;75.20;;;;;;4891682;29;20075;-52
2023/07/12 05:26:33;;;;;;;1.98;1.40;;;20.70;75.00;;;;;;4889218;29;20600;-50
2023/07/12 05:29:03;;;;;;;;;;;20.70;75.20;;;;;;4880247;29;20067;-52
2023/07/12 05:31:30;;;;;;;2.92;1.40;;;20.80;75.70;;;;;;4894853;29;19964;-52
2023/07/12 05:33:56;;;;;;;2.85;1.52;;;20.80;74.70;;;;;;4887852;29;20041;-52
2023/07/12 05:36:23;;;;;;;3.10;1.83;;;20.70;75.00;;;;;;4894735;29;20099;-52
2023/07/12 05:38:50;;;;;;;1.92;1.67;;;20.70;75.00;;;;;;4896661;29;20071;-50
2023/07/12 05:41:17;;;;;;;3.05;1.90;;;20.70;74.70;;;;;;4892236;29;20502;-50
2023/07/12 05:43:43;;;;;;;2.88;1.63;;;20.70;74.80;;;;;;4894287;29;20395;-50
2023/07/12 05:46:10;;;;;;;3.22;1.90;;;20.70;75.00;;;;;;4896103;29;20063;-51
2023/07/12 05:48:37;;;;;;;1.70;1.55;;;20.70;75.10;;;;;;4894090;29;20043;-53
2023/07/12 05:51:07;;;;;;;3.63;2.10;;;20.70;75.20;;;;;;4894931;29;20096;-50
2023/07/12 05:53:37;;;;;;;2.20;1.50;;;20.70;75.00;;;;;;4889034;29;20125;-53
2023/07/12 05:56:05;;;;;;;3.17;1.50;;;20.70;75.20;;;;;;4886977;29;20167;-52
2023/07/12 05:58:35;;;;;;;2.08;1.30;;;20.70;75.60;;;;;;4889705;29;20115;-53
2023/07/12 06:01:02;;;;;;;2.90;1.85;;;20.80;76.20;;;;;;4897055;29;20040;-53
2023/07/12 06:03:32;;;;;;;2.83;1.52;;;20.80;76.90;;;;;;4880677;29;20085;-52
2023/07/12 06:06:07;;;;;;;3.05;1.45;;;20.90;77.30;;;;;;4869352;29;20588;-52
2023/07/12 06:08:34;;;;;;;2.13;1.40;;;21.00;77.80;;;;;;4896905;29;20048;-53
2023/07/12 06:11:01;;;;;;;2.28;1.80;;;21.10;77.00;;;;;;4892704;29;20044;-53
2023/07/12 06:13:28;;;;;;;2.58;1.48;;;21.20;77.20;;;;;;4884813;29;20413;-48
2023/07/12 06:15:55;;;;;;;3.13;1.65;;;21.30;76.10;;;;;;4879443;29;20044;-53
2023/07/12 06:18:23;;;;;;;1.45;1.35;;;21.40;75.10;;;;;;4897479;29;20064;-53
2023/07/12 06:20:58;;;;;;;2.20;1.40;;;21.40;74.60;;;;;;4892677;29;20052;-52
2023/07/12 06:23:33;;;;;;;2.35;1.60;;;21.40;73.60;;;;;;4888809;29;20454;-53
2023/07/12 06:26:00;;;;;;;1.20;1.10;;;21.50;73.50;;;;;;4875480;29;20048;-51
2023/07/12 06:28:29;;;;;;;2.70;1.80;;;21.50;73.40;;;;;;4897706;29;20413;-52
2023/07/12 06:31:06;;;;;;;1.65;1.40;;;21.40;73.40;;;;;;4893189;29;20167;-52
2023/07/12 06:33:38;;;;;;;3.15;1.90;;;21.50;73.30;;;;;;4872850;29;20135;-53
2023/07/12 06:36:08;;;;;;;5.18;2.00;;;21.50;73.00;;;;;;4896253;29;20410;-53
2023/07/12 06:38:35;;;;;;;3.22;1.33;;;21.50;72.50;;;;;;4881759;29;20067;-53
2023/07/12 06:41:04;;;;;;;2.83;2.50;;;21.50;72.20;;;;;;4888118;29;20071;-52
2023/07/12 06:43:33;;;;;;;4.00;1.77;;;21.60;72.30;;;;;;4889555;29;20505;-53
2023/07/12 06:46:03;;;;;;;4.97;1.65;;;21.60;72.50;;;;;;4879122;29;20644;-52
2023/07/12 06:48:37;;;;;;;2.20;1.98;;;21.60;72.20;;;;;;4885424;29;20120;-53
2023/07/12 06:51:05;;;;;;;1.80;1.50;;;21.70;71.70;;;;;;4892737;29;20048;-52
2023/07/12 06:53:32;;;;;;;2.42;1.35;;;21.70;71.20;;;;;;4884230;29;20055;-49
2023/07/12 06:56:01;;;;;;;8.13;1.80;;;21.70;70.80;;;;;;4887953;29;20048;-48
2023/07/12 06:58:31;;;;;;;3.28;1.92;;;21.70;71.10;;;;;;4895622;29;20043;-53
2023/07/12 07:01:07;;;;;;;2.45;1.52;;;21.70;70.80;;;;;;4896072;29;20059;-52
2023/07/12 07:03:43;;;;;;;3.35;2.28;;;21.80;69.90;;;;;;4890443;29;20425;-53
2023/07/12 07:06:14;;;;;;;3.50;1.77;;;21.80;70.30;;;;;;4892422;29;20099;-51
2023/07/12 07:08:41;;;;;;;2.47;1.75;;;21.80;69.70;;;;;;4896158;29;20289;-51
2023/07/12 07:11:09;;;;;;;2.60;1.35;;;21.90;69.00;;;;;;4892237;29;20041;-50
2023/07/12 07:13:38;;;;;;;3.10;1.92;;;21.90;69.60;;;;;;4892558;29;20048;-53
2023/07/12 07:16:05;;;;;;;3.78;2.22;;;22.00;70.00;;;;;;4878614;29;20047;-49
2023/07/12 07:18:34;;;;;;;4.38;2.70;;;22.00;70.00;;;;;;4890624;29;20081;-52
2023/07/12 07:21:03;;;;;;;3.38;1.90;;;22.10;68.80;;;;;;4885126;29;20395;-53
2023/07/12 07:23:33;;;;;;;5.00;2.03;;;22.20;68.00;;;;;;4889923;29;20076;-53
2023/07/12 07:26:06;;;;;;;5.05;2.00;;;22.20;67.70;;;;;;4888877;29;20127;-51
2023/07/12 07:28:40;;;;;;;3.92;2.15;;;22.20;67.50;;;;;;4887623;29;20103;-51
2023/07/12 07:31:10;;;;;;;2.75;1.70;;;22.20;67.90;;;;;;4895092;29;20048;-49
2023/07/12 07:33:39;;;;;;;2.10;1.48;;;22.30;66.80;;;;;;4895901;29;20056;-53
2023/07/12 07:36:08;;;;;;;3.53;1.85;;;22.30;66.30;;;;;;4885332;29;20060;-53
2023/07/12 07:38:37;;;;;;;3.00;1.90;;;22.30;66.10;;;;;;4873648;29;20041;-51
2023/07/12 07:41:09;;;;;;;3.78;1.90;;;22.20;65.90;;;;;;4895258;29;20421;-52
2023/07/12 07:43:36;;;;;;;3.88;1.40;;;22.20;65.90;;;;;;4890899;29;20079;-52
2023/07/12 07:46:06;;;;;;;4.57;1.77;;;22.10;66.10;;;;;;4890374;29;20502;-50
2023/07/12 07:48:33;;;;;;;5.43;2.13;;;22.10;65.50;;;;;;4894686;29;20068;-53
2023/07/12 07:51:00;;;;;;;3.88;2.45;;;22.10;66.50;;;;;;4878093;29;20044;-52
2023/07/12 07:53:32;;;;;;;2.53;1.60;;;22.00;66.00;;;;;;4884934;29;20045;-53
2023/07/12 07:55:59;;;;;;;4.65;1.92;;;22.00;65.20;;;;;;4886800;29;20119;-52
2023/07/12 07:58:26;;;;;;;2.47;1.80;;;22.00;65.00;;;;;;4894399;29;20139;-53
2023/07/12 08:00:52;;;;;;;1.98;1.52;;;22.00;65.20;;;;;;4894720;29;20112;-53
2023/07/12 08:03:22;;;;;;;4.15;2.47;;;21.90;64.70;;;;;;4885575;29;20132;-51
2023/07/12 08:05:51;;;;;;;2.13;1.23;;;21.90;64.50;;;;;;4889844;29;20083;-52
2023/07/12 08:08:20;;;;;;;3.17;1.52;;;21.90;65.30;;;;;;4894400;29;20044;-53
2023/07/12 08:10:47;;;;;;;3.60;1.33;;;22.00;65.70;;;;;;4893035;29;20052;-52
2023/07/12 08:13:14;;;;;;;4.25;1.95;;;22.00;65.60;;;;;;4881464;29;20059;-53
2023/07/12 08:15:41;;;;;;;4.97;1.27;;;22.10;64.20;;;;;;4894042;29;20048;-48
2023/07/12 08:18:13;;;;;;;6.80;1.70;;;22.20;63.90;;;;;;4895613;29;20067;-51
2023/07/12 08:20:48;;;;;;;2.35;1.33;;;22.20;63.40;;;;;;4890596;29;20046;-52
2023/07/12 08:23:18;;;;;;;3.50;1.42;;;22.30;64.20;;;;;;4886930;29;20056;-53
2023/07/12 08:25:49;;;;;;;2.33;1.30;;;22.40;62.90;;;;;;4886549;29;20043;-52
2023/07/12 08:28:17;;;;;;;3.92;1.48;;;22.50;63.40;;;;;;4894362;29;20103;-49
2023/07/12 08:30:45;;;;;;;4.20;1.83;;;22.60;63.20;;;;;;4877554;29;20081;-53
2023/07/12 08:33:13;;;;;;;3.60;1.20;;;22.70;62.60;;;;;;4870309;29;20076;-51
2023/07/12 08:35:42;;;;;;;5.22;1.35;;;22.80;61.50;;;;;;4893334;29;20036;-52
2023/07/12 08:38:18;;;;;;;3.28;1.90;;;22.90;61.40;;;;;;4894935;29;20032;-53
2023/07/12 08:40:51;;;;;;;3.28;1.67;;;22.90;62.20;;;;;;4888589;29;20041;-53
2023/07/12 08:43:21;;;;;;;1.92;1.25;;;23.00;60.90;;;;;;4892216;29;20044;-49
2023/07/12 08:45:57;;;;;;;3.47;1.50;;;23.10;60.10;;;;;;4893983;29;20131;-49
2023/07/12 08:48:28;;;;;;;3.33;1.63;;;23.10;59.90;;;;;;4923185;23;20134;-50
2023/07/12 08:51:00;;;;;;;4.18;1.77;;;23.20;60.00;;;;;;4924192;29;20043;-46
2023/07/12 08:53:33;;;;;;;2.63;0.85;;;23.20;60.00;;;;;;4917377;29;20575;-47
2023/07/12 08:56:04;;;;;;;6.32;2.20;;;23.30;59.40;;;;;;4912896;29;20083;-50
2023/07/12 08:58:47;;;;;;;2.38;1.23;;;23.40;59.50;;;;;;4927071;28;20095;-49
2023/07/12 09:01:37;;;;;;;3.47;1.98;;;23.40;59.30;;;;;;4932357;28;20040;-53
2023/07/12 09:04:24;;;;;;;3.03;1.33;;;23.50;58.70;;;;;;4932526;28;20457;-53
2023/07/12 09:06:56;;;;;;;4.00;1.08;;;23.60;59.10;;;;;;4937968;28;20071;-53
2023/07/12 09:09:27;;;;;;;5.55;1.70;;;23.60;59.20;;;;;;4941128;28;20129;-53
2023/07/12 09:11:58;;;;;;;3.85;1.40;;;23.70;58.80;;;;;;4943486;28;20063;-54
2023/07/12 09:14:27;;;;;;;3.15;1.50;;;23.70;58.50;;;;;;4934301;28;20135;-53
2023/07/12 09:17:00;;;;;;;4.97;1.20;;;23.80;58.70;;;;;;4931845;28;20047;-52
2023/07/12 09:19:37;;;;;;;3.50;1.45;;;23.80;57.80;;;;;;4933014;28;20054;-53
2023/07/12 09:22:15;;;;;;;4.00;1.63;;;24.00;57.50;;;;;;4938249;28;20048;-51
2023/07/12 09:25:00;;;;;;;3.00;1.30;;;24.00;57.50;;;;;;4936370;28;20104;-51
2023/07/12 09:27:29;;;;;;;3.75;1.70;;;24.10;57.60;;;;;;4944357;28;20051;-54
2023/07/12 09:30:05;;;;;;;3.30;1.50;;;24.20;57.60;;;;;;4943895;28;20050;-53
2023/07/12 09:32:41;;;;;;;2.35;1.42;;;24.30;57.80;;;;;;4936279;28;20069;-52
2023/07/12 09:35:40;;;;;;;1.77;1.50;;;24.40;57.80;;;;;;4942005;28;20118;-52
2023/07/12 09:38:11;;;;;;;2.85;1.30;;;24.60;57.70;;;;;;4946641;28;20055;-53
2023/07/12 09:40:44;;;;;;;3.72;1.65;;;24.70;56.50;;;;;;4939635;28;20047;-51
2023/07/12 09:43:17;;;;;;;;;;;24.80;55.60;;;;;;4948114;28;20046;-53
2023/07/12 09:46:03;;;;;;;1.75;0.80;;;24.90;56.20;;;;;;4943051;28;20339;-50
2023/07/12 09:48:53;;;;;;;4.07;1.20;;;24.90;54.80;;;;;;4934143;28;20039;-53
2023/07/12 09:51:32;;;;;;;3.17;1.52;;;24.80;54.40;;;;;;4935305;28;20068;-53
2023/07/12 09:54:25;;;;;;;3.85;1.27;;;24.80;54.70;;;;;;4936823;28;20051;-52
2023/07/12 09:56:55;;;;;;;3.38;1.58;;;24.70;54.60;;;;;;4933832;28;20031;-53
2023/07/12 09:59:39;;;;;;;2.58;1.20;;;24.60;54.60;;;;;;4936800;28;20091;-50
2023/07/12 10:02:15;;;;;;;6.50;1.77;;;24.60;54.90;;;;;;4942111;28;20114;-53
2023/07/12 10:04:45;;;;;;;3.13;1.40;;;24.50;55.30;;;;;;4938939;28;20095;-53
2023/07/12 10:07:39;;;;;;;3.65;1.00;;;24.50;55.50;;;;;;4940580;28;20102;-51
2023/07/12 10:10:26;;;;;;;3.92;1.17;;;24.60;54.40;;;;;;4934406;28;20046;-54
2023/07/12 10:13:20;;;;;;;1.88;1.15;;;24.70;54.80;;;;;;4942908;28;20047;-51
2023/07/12 10:15:50;;;;;;;2.88;1.30;;;24.80;54.90;;;;;;4934359;28;20762;-51
2023/07/12 10:18:26;;;;;;;5.70;1.60;;;24.90;55.20;;;;;;4934870;28;20050;-52
2023/07/12 10:20:55;;;;;;;3.88;1.17;;;25.10;54.50;;;;;;4934733;28;20394;-52
2023/07/12 10:23:28;;;;;;;2.85;1.60;;;25.20;54.30;;;;;;4924842;28;20052;-53
2023/07/12 10:26:02;;;;;;;2.22;1.25;;;25.30;54.00;;;;;;4944443;28;20134;-54
2023/07/12 10:28:39;;;;;;;3.30;1.45;;;25.40;53.10;;;;;;4934158;28;20040;-53
2023/07/12 10:31:22;;;;;;;4.05;1.88;;;25.50;52.70;;;;;;4940744;28;20075;-53
2023/07/12 10:33:57;;;;;;;3.05;1.35;;;25.60;52.00;;;;;;4933289;29;20098;-54
2023/07/12 10:36:29;;;;;;;2.88;1.17;;;25.60;51.90;;;;;;4936346;28;20102;-53
2023/07/12 10:38:56;;;;;;;4.30;1.40;;;25.50;52.40;;;;;;4946229;28;20050;-54
2023/07/12 10:41:31;;;;;;;3.45;1.20;;;25.50;52.30;;;;;;4934052;28;20047;-54
2023/07/12 10:44:14;;;;;;;2.53;0.80;;;25.50;51.60;;;;;;4941672;28;20043;-52
2023/07/12 10:46:52;;;;;;;2.85;0.80;;;25.40;50.70;;;;;;4941549;28;20050;-53
2023/07/12 10:49:36;;;;;;;1.17;0.90;;;25.30;50.30;;;;;;4936084;28;20043;-53
2023/07/12 10:52:21;;;;;;;2.67;1.27;;;25.30;51.20;;;;;;4942492;28;20039;-51
2023/07/12 10:55:07;;;;;;;4.70;1.58;;;25.20;51.90;;;;;;4939337;28;20074;-52
2023/07/12 10:57:46;;;;;;;2.75;1.10;;;25.20;51.40;;;;;;4932614;28;20532;-53
2023/07/12 11:00:20;;;;;;;6.05;1.10;;;25.10;51.80;;;;;;4936746;28;20094;-52
2023/07/12 11:03:10;;;;;;;2.88;1.13;;;25.10;51.30;;;;;;4942888;28;20127;-53
2023/07/12 11:05:56;;;;;;;1.83;1.10;;;25.20;52.10;;;;;;4926384;28;20086;-52
2023/07/12 11:08:32;;;;;;;1.30;0.80;;;25.20;50.60;;;;;;4941305;28;20090;-54
2023/07/12 11:11:09;;;;;;;1.10;0.80;;;25.30;51.30;;;;;;4944276;28;20508;-53
2023/07/12 11:13:51;;;;;;;1.10;0.82;;;25.30;51.30;;;;;;4935440;28;20560;-53
2023/07/12 11:16:19;;;;;;;2.07;0.90;;;25.30;50.20;;;;;;4916104;29;20481;-51
2023/07/12 11:19:11;;;;;;;3.58;1.08;;;25.40;50.60;;;;;;4938001;28;20062;-53
2023/07/12 11:21:47;;;;;;;5.00;1.27;;;25.40;50.60;;;;;;4914627;28;20156;-53
2023/07/12 11:24:45;;;;;;;3.83;1.27;;;25.50;50.10;;;;;;4948912;28;20059;-54
2023/07/12 11:27:32;;;;;;;3.30;1.00;;;25.50;50.00;;;;;;4945509;28;20052;-51
2023/07/12 11:30:12;;;;;;;1.95;0.90;;;25.60;49.20;;;;;;4937901;28;20044;-49
2023/07/12 11:32:40;;;;;;;2.38;1.38;;;25.60;49.40;;;;;;4934917;28;20052;-50
2023/07/12 11:35:19;;;;;;;3.05;0.88;;;25.70;49.80;;;;;;4942127;28;20420;-53
2023/07/12 11:37:52;;;;;;;1.98;0.73;;;25.80;48.10;;;;;;4934679;28;20051;-50
2023/07/12 11:40:38;;;;;;;2.55;1.00;;;25.80;48.20;;;;;;4941232;28;20493;-50
2023/07/12 11:43:23;;;;;;;3.70;1.20;;;25.80;48.00;;;;;;4941711;28;20115;-50
2023/07/12 11:45:55;;;;;;;1.55;0.70;;;25.90;48.30;;;;;;4948411;28;20511;-49
2023/07/12 11:48:33;;;;;;;5.35;0.95;;;26.00;46.90;;;;;;4947535;28;20656;-54
2023/07/12 11:51:08;;;;;;;2.83;1.08;;;26.00;46.10;;;;;;4944449;28;20118;-53
2023/07/12 11:53:36;;;;;;;2.23;0.50;;;26.10;46.60;;;;;;4948629;28;20054;-53
2023/07/12 11:56:05;;;;;;;2.17;1.23;;;26.10;45.80;;;;;;4945179;28;20036;-51
2023/07/12 11:58:32;;;;;;;1.45;0.43;;;26.10;45.00;;;;;;4947213;28;20102;-54
2023/07/12 12:01:02;;;;;;;0.90;0.60;;;26.20;45.90;;;;;;4947251;28;20635;-54
2023/07/12 12:03:30;;;;;;;1.23;0.70;;;26.30;46.60;;;;;;4949863;28;20039;-52
2023/07/12 12:05:59;;;;;;;2.33;0.70;;;26.40;46.20;;;;;;4947597;28;20106;-54
2023/07/12 12:08:32;;;;;;;2.53;0.60;;;26.60;45.90;;;;;;4948369;28;20073;-52
2023/07/12 12:11:02;;;;;;;2.47;0.88;;;26.70;46.10;;;;;;4946738;28;20051;-52
2023/07/12 12:13:47;;;;;;;4.00;0.85;;;26.90;45.40;;;;;;4947636;28;20118;-53
2023/07/12 12:16:28;;;;;;;1.83;0.80;;;26.90;44.80;;;;;;4946454;28;20066;-50
2023/07/12 12:18:58;;;;;;;0.82;0.77;;;27.00;44.70;;;;;;4940875;28;20440;-53
2023/07/12 12:21:29;;;;;;;3.63;0.70;;;27.00;45.30;;;;;;4935677;28;20500;-53
2023/07/12 12:24:04;;;;;;;1.88;0.82;;;27.00;45.20;;;;;;4936065;28;20035;-53
2023/07/12 12:26:37;;;;;;;2.60;0.82;;;27.00;44.50;;;;;;4934670;28;20051;-53
2023/07/12 12:29:19;;;;;;;2.58;0.82;;;27.00;44.10;;;;;;4936195;28;20403;-51
2023/07/12 12:31:52;;;;;;;3.13;0.80;;;27.10;43.90;;;;;;4940839;28;20460;-52
2023/07/12 12:34:26;;;;;;;0.77;0.40;;;27.10;43.20;;;;;;4941588;28;20548;-52
2023/07/12 12:37:11;;;;;;;2.85;1.10;;;27.20;42.60;;;;;;4939932;28;20088;-54
2023/07/12 12:39:38;;;;;;;1.77;0.60;;;27.20;43.00;;;;;;4937853;28;20036;-51
2023/07/12 12:42:22;;;;;;;1.30;0.50;;;27.30;43.70;;;;;;4938450;28;20046;-52
2023/07/12 12:44:57;;;;;;;1.00;0.47;;;27.40;41.80;;;;;;4939981;28;20043;-53
2023/07/12 12:47:28;;;;;;;1.42;0.50;;;27.40;42.60;;;;;;4939320;28;20039;-49
2023/07/12 12:49:58;;;;;;;1.42;0.50;;;27.50;42.30;;;;;;4920115;29;20055;-51
2023/07/12 12:52:30;;;;;;;1.92;0.45;;;27.60;42.10;;;;;;4922067;28;20064;-52
2023/07/12 12:55:08;;;;;;;1.00;0.47;;;27.60;40.50;;;;;;4944278;28;20043;-50
2023/07/12 12:57:43;;;;;;;1.30;0.65;;;27.70;41.20;;;;;;4936307;28;20043;-54
2023/07/12 13:00:19;;;;;;;0.88;0.70;;;27.80;41.30;;;;;;4944276;28;20090;-53
2023/07/12 13:02:53;;;;;;;2.10;0.50;;;27.90;41.40;;;;;;4946066;28;20040;-50
2023/07/12 13:05:24;;;;;;;2.47;0.50;;;28.00;41.10;;;;;;4951822;28;20130;-53
2023/07/12 13:08:04;;;;;;;0.80;0.63;;;28.10;41.00;;;;;;4947716;28;20046;-54
2023/07/12 13:10:33;;;;;;;2.30;0.82;;;28.30;41.30;;;;;;4943209;28;20043;-51
2023/07/12 13:13:17;;;;;;;1.58;0.75;;;28.50;40.80;;;;;;4945757;28;20047;-53